Time;durP1;ratioP1;P1;durP2;ratioP2;P2;SDS_P1;SDS_P2;PMS_P1;PMS_P2;Temp;Humidity;BMP_temperature;BMP_pressure;BME280_temperature;BME280_humidity;BME280_pressure;Samples;Min_cycle;Max_cycle;Signal;HPM_P1;HPM_P2
2022/07/11 00:02:11;;;;;;;1.63;1.53;;;14.80;99.90;;;;;;5092932;28;20504;-62
2022/07/11 00:04:38;;;;;;;3.03;1.50;;;14.80;99.90;;;;;;5092922;28;20449;-62
2022/07/11 00:07:06;;;;;;;2.17;1.97;;;14.80;99.90;;;;;;5093228;28;20450;-63
2022/07/11 00:09:34;;;;;;;6.20;3.40;;;14.80;99.90;;;;;;5092892;28;20977;-62
2022/07/11 00:12:01;;;;;;;1.67;1.57;;;14.70;99.90;;;;;;5093170;28;20450;-63
2022/07/11 00:14:29;;;;;;;2.40;1.93;;;14.70;99.90;;;;;;5093041;28;20973;-62
2022/07/11 00:16:57;;;;;;;2.17;1.97;;;14.70;99.90;;;;;;5079989;28;21014;-63
2022/07/11 00:19:25;;;;;;;3.73;1.80;;;14.70;99.90;;;;;;5092869;28;20534;-63
2022/07/11 00:21:53;;;;;;;1.90;1.60;;;14.60;99.90;;;;;;5088585;28;20537;-62
2022/07/11 00:24:21;;;;;;;4.43;1.70;;;14.70;99.90;;;;;;5093256;28;20442;-62
2022/07/11 00:26:49;;;;;;;3.63;2.20;;;14.60;99.90;;;;;;5097244;28;20455;-62
2022/07/11 00:29:17;;;;;;;3.70;2.20;;;14.70;99.90;;;;;;5098184;28;20462;-62
2022/07/11 00:31:44;;;;;;;2.43;2.23;;;14.60;99.90;;;;;;5095934;28;20934;-63
2022/07/11 00:34:12;;;;;;;2.50;2.17;;;14.60;99.90;;;;;;5096928;28;20513;-62
2022/07/11 00:36:41;;;;;;;2.53;2.33;;;14.60;99.90;;;;;;5097421;28;20957;-62
2022/07/11 00:39:08;;;;;;;3.67;2.10;;;14.60;99.90;;;;;;5097421;28;20491;-62
2022/07/11 00:41:36;;;;;;;3.63;2.27;;;14.60;99.90;;;;;;5097731;28;20470;-62
2022/07/11 00:44:03;;;;;;;3.43;2.17;;;14.60;99.90;;;;;;5097641;28;20450;-62
2022/07/11 00:46:31;;;;;;;2.60;1.93;;;14.60;99.90;;;;;;5097391;28;20439;-62
2022/07/11 00:48:59;;;;;;;3.60;2.20;;;14.60;99.90;;;;;;5097636;28;20465;-62
2022/07/11 00:51:27;;;;;;;2.40;2.07;;;14.60;99.90;;;;;;5097848;28;20964;-62
2022/07/11 00:53:57;;;;;;;2.13;1.90;;;14.60;99.90;;;;;;5096516;28;20450;-62
2022/07/11 00:56:29;;;;;;;2.80;2.03;;;14.60;99.90;;;;;;5097183;28;20492;-62
2022/07/11 00:58:58;;;;;;;2.37;2.17;;;14.60;99.90;;;;;;5097487;28;20558;-62
2022/07/11 01:01:26;;;;;;;2.30;2.10;;;14.60;99.90;;;;;;5097106;28;20438;-62
2022/07/11 01:03:53;;;;;;;2.50;2.23;;;14.50;99.90;;;;;;5096935;28;20520;-62
2022/07/11 01:06:21;;;;;;;3.33;2.27;;;14.50;99.90;;;;;;5096516;28;20956;-62
2022/07/11 01:08:48;;;;;;;4.53;2.43;;;14.50;99.90;;;;;;5096309;28;20495;-62
2022/07/11 01:11:17;;;;;;;2.33;2.13;;;14.50;99.90;;;;;;5096501;28;20473;-62
2022/07/11 01:13:45;;;;;;;2.93;2.50;;;14.50;99.90;;;;;;5096622;28;20463;-63
2022/07/11 01:16:14;;;;;;;2.73;2.40;;;14.50;99.90;;;;;;5096424;28;20561;-61
2022/07/11 01:18:43;;;;;;;2.33;2.13;;;14.50;99.90;;;;;;5095702;28;20946;-62
2022/07/11 01:21:30;;;;;;;2.53;2.33;;;14.40;99.90;;;;;;5096400;28;20476;-62
2022/07/11 01:24:01;;;;;;;4.03;2.67;;;14.50;99.90;;;;;;5095903;28;20852;-62
2022/07/11 01:26:29;;;;;;;4.77;2.23;;;14.50;99.90;;;;;;5096675;28;20431;-62
2022/07/11 01:29:05;;;;;;;3.20;2.67;;;14.40;99.90;;;;;;5096183;28;20462;-62
2022/07/11 01:31:32;;;;;;;3.10;2.70;;;14.40;99.90;;;;;;5096530;28;20433;-62
2022/07/11 01:34:00;;;;;;;4.00;2.80;;;14.40;99.90;;;;;;5095705;28;20438;-62
2022/07/11 01:36:27;;;;;;;4.20;2.33;;;14.40;99.90;;;;;;5095365;28;20481;-60
2022/07/11 01:38:54;;;;;;;5.27;2.90;;;14.40;99.90;;;;;;5095779;28;20545;-61
2022/07/11 01:41:23;;;;;;;5.00;3.20;;;14.40;99.90;;;;;;5095757;28;20454;-62
2022/07/11 01:43:50;;;;;;;3.00;2.60;;;14.40;99.90;;;;;;5096060;28;20442;-62
2022/07/11 01:46:18;;;;;;;4.00;2.60;;;14.30;99.90;;;;;;5096184;28;20450;-62
2022/07/11 01:48:46;;;;;;;2.97;2.67;;;14.30;99.90;;;;;;5095199;28;20469;-61
2022/07/11 01:51:13;;;;;;;4.23;2.77;;;14.30;99.90;;;;;;5095456;28;20480;-61
2022/07/11 01:53:40;;;;;;;6.63;2.43;;;14.30;99.90;;;;;;5095470;28;20455;-63
2022/07/11 01:56:08;;;;;;;9.87;3.40;;;14.30;99.90;;;;;;5095192;28;20539;-63
2022/07/11 01:58:36;;;;;;;4.00;2.67;;;14.30;99.90;;;;;;5095438;28;20553;-62
2022/07/11 02:01:04;;;;;;;3.37;3.07;;;14.30;99.90;;;;;;5095156;28;20460;-64
2022/07/11 02:03:31;;;;;;;3.40;2.70;;;14.30;99.90;;;;;;5095146;28;20465;-63
2022/07/11 02:05:58;;;;;;;4.60;3.03;;;14.30;99.90;;;;;;5095370;28;20438;-62
2022/07/11 02:08:25;;;;;;;4.70;3.30;;;14.20;99.90;;;;;;5095359;28;20566;-62
2022/07/11 02:10:53;;;;;;;4.30;2.83;;;14.20;99.90;;;;;;5095130;28;20474;-61
2022/07/11 02:13:22;;;;;;;4.30;3.40;;;14.20;99.90;;;;;;5095164;28;20538;-62
2022/07/11 02:15:53;;;;;;;6.33;2.83;;;14.20;99.90;;;;;;5097974;28;20470;-62
2022/07/11 02:18:20;;;;;;;5.60;2.53;;;14.20;99.90;;;;;;5100888;28;20902;-62
2022/07/11 02:20:48;;;;;;;8.07;3.13;;;14.10;99.90;;;;;;5094965;28;20529;-63
2022/07/11 02:23:17;;;;;;;4.03;2.93;;;14.10;99.90;;;;;;5094946;28;20946;-62
2022/07/11 02:25:44;;;;;;;3.77;3.37;;;14.10;99.90;;;;;;5095101;28;20536;-62
2022/07/11 02:28:12;;;;;;;3.77;2.93;;;14.20;99.90;;;;;;5094837;28;20552;-63
2022/07/11 02:30:41;;;;;;;4.53;2.97;;;14.20;99.90;;;;;;5094916;28;20511;-62
2022/07/11 02:33:13;;;;;;;5.77;3.73;;;14.20;99.90;;;;;;5094657;28;20442;-62
2022/07/11 02:35:41;;;;;;;3.63;2.90;;;14.20;99.90;;;;;;5094192;28;20463;-63
2022/07/11 02:38:08;;;;;;;4.33;3.17;;;14.20;99.90;;;;;;5094029;28;20462;-62
2022/07/11 02:40:35;;;;;;;5.47;3.37;;;14.30;99.90;;;;;;5094513;28;20495;-63
2022/07/11 02:43:03;;;;;;;5.00;3.70;;;14.30;99.90;;;;;;5094597;28;20446;-62
2022/07/11 02:45:30;;;;;;;5.23;3.23;;;14.30;99.90;;;;;;5094180;28;20443;-62
2022/07/11 02:47:57;;;;;;;4.27;3.50;;;14.30;99.90;;;;;;5093915;28;21044;-61
2022/07/11 02:50:26;;;;;;;4.30;3.30;;;14.30;99.90;;;;;;5094000;28;20458;-62
2022/07/11 02:52:53;;;;;;;8.87;3.57;;;14.30;99.90;;;;;;5097921;28;20496;-62
2022/07/11 02:55:21;;;;;;;5.30;3.27;;;14.30;99.90;;;;;;5095672;28;21046;-61
2022/07/11 02:57:48;;;;;;;5.10;3.53;;;14.30;99.90;;;;;;5095133;28;20466;-62
2022/07/11 03:00:17;;;;;;;4.90;3.90;;;14.40;99.90;;;;;;5094360;28;20500;-63
2022/07/11 03:02:45;;;;;;;4.47;4.07;;;14.40;99.90;;;;;;5094949;28;20447;-62
2022/07/11 03:05:13;;;;;;;4.00;3.60;;;14.40;99.90;;;;;;5094776;28;20442;-61
2022/07/11 03:07:42;;;;;;;4.30;3.70;;;14.40;99.90;;;;;;5095113;28;20450;-63
2022/07/11 03:10:10;;;;;;;5.37;3.83;;;14.40;99.90;;;;;;5076494;28;21046;-61
2022/07/11 03:12:38;;;;;;;7.53;4.13;;;14.50;99.90;;;;;;5076992;28;20447;-62
2022/07/11 03:15:07;;;;;;;6.70;3.60;;;14.40;99.90;;;;;;5095777;28;21046;-62
2022/07/11 03:17:34;;;;;;;4.77;3.90;;;14.40;99.90;;;;;;5095752;28;20541;-61
2022/07/11 03:20:01;;;;;;;5.43;3.50;;;14.40;99.90;;;;;;5097215;28;20804;-62
2022/07/11 03:22:29;;;;;;;5.47;3.40;;;14.50;99.90;;;;;;5097046;28;20553;-62
2022/07/11 03:24:59;;;;;;;7.43;3.70;;;14.40;99.90;;;;;;5097278;28;20442;-61
2022/07/11 03:27:27;;;;;;;5.03;3.60;;;14.50;99.90;;;;;;5096391;28;20861;-62
2022/07/11 03:29:54;;;;;;;5.43;4.70;;;14.50;99.90;;;;;;5095449;28;20898;-63
2022/07/11 03:32:22;;;;;;;10.77;4.87;;;14.50;99.90;;;;;;5095226;28;20533;-62
2022/07/11 03:37:30;;;;;;;4.30;3.77;;;14.50;99.90;;;;;;5093276;28;20427;-63
2022/07/11 03:39:59;;;;;;;6.93;3.73;;;14.50;99.90;;;;;;5094878;28;21049;-62
2022/07/11 03:42:26;;;;;;;9.20;4.20;;;14.50;99.90;;;;;;5095204;28;20512;-62
2022/07/11 03:44:53;;;;;;;6.00;4.30;;;14.50;99.90;;;;;;5096150;28;20512;-61
2022/07/11 03:47:21;;;;;;;5.03;4.50;;;14.60;99.90;;;;;;5101619;28;20438;-61
2022/07/11 03:49:48;;;;;;;5.97;4.30;;;14.60;99.90;;;;;;5098892;28;20798;-62
2022/07/11 03:52:16;;;;;;;5.70;3.90;;;14.60;99.90;;;;;;5095984;28;20495;-61
2022/07/11 03:54:45;;;;;;;7.60;4.50;;;14.60;99.90;;;;;;5100909;28;20977;-61
2022/07/11 03:57:13;;;;;;;4.20;3.80;;;14.70;99.90;;;;;;5094060;28;20477;-62
2022/07/11 03:59:40;;;;;;;9.13;4.63;;;14.70;99.90;;;;;;5092675;28;20478;-62
2022/07/11 04:02:08;;;;;;;16.03;5.27;;;14.70;99.90;;;;;;5092858;28;20483;-62
2022/07/11 04:04:35;;;;;;;7.87;4.50;;;14.70;99.90;;;;;;5092845;28;20446;-62
2022/07/11 04:10:00;;;;;;;11.43;5.40;;;14.70;99.90;;;;;;5111860;27;20558;-62
2022/07/11 04:12:28;;;;;;;5.73;4.77;;;14.70;99.90;;;;;;5132098;27;20993;-61
2022/07/11 04:14:55;;;;;;;8.20;4.97;;;14.70;99.90;;;;;;5131708;27;20488;-63
2022/07/11 04:17:22;;;;;;;7.20;4.87;;;14.70;99.90;;;;;;5134825;27;20474;-62
2022/07/11 04:19:50;;;;;;;5.70;4.90;;;14.80;99.90;;;;;;5096246;27;20878;-62
2022/07/11 04:22:17;;;;;;;5.83;4.60;;;14.80;99.90;;;;;;5092437;28;20449;-61
2022/07/11 04:24:44;;;;;;;5.90;4.70;;;14.80;99.90;;;;;;5111148;28;20532;-61
2022/07/11 04:27:13;;;;;;;5.20;4.57;;;14.90;99.90;;;;;;5098546;22;21117;-61
2022/07/11 04:29:40;;;;;;;5.83;5.23;;;14.90;99.90;;;;;;5036645;28;20538;-61
2022/07/11 04:32:08;;;;;;;6.03;5.17;;;14.90;99.90;;;;;;5049746;28;20452;-61
2022/07/11 04:34:36;;;;;;;9.20;6.20;;;14.90;99.90;;;;;;5049432;28;20448;-61
2022/07/11 04:37:04;;;;;;;7.20;5.37;;;15.00;99.90;;;;;;5049496;28;20559;-61
2022/07/11 04:39:32;;;;;;;7.87;5.27;;;15.00;99.90;;;;;;5049611;28;20943;-61
2022/07/11 04:42:00;;;;;;;10.80;5.40;;;15.00;99.90;;;;;;5049227;28;20460;-61
2022/07/11 04:44:29;;;;;;;6.13;5.40;;;15.10;99.90;;;;;;5049482;28;20963;-61
2022/07/11 04:46:56;;;;;;;6.30;5.30;;;15.10;99.90;;;;;;5048799;28;20547;-61
2022/07/11 04:49:24;;;;;;;6.57;4.90;;;15.10;99.90;;;;;;5049251;28;20476;-61
2022/07/11 04:51:51;;;;;;;7.83;6.03;;;15.10;99.90;;;;;;5049875;28;20475;-61
2022/07/11 04:54:18;;;;;;;7.33;5.30;;;15.10;99.90;;;;;;5049283;28;20444;-61
2022/07/11 04:56:45;;;;;;;7.23;6.03;;;15.10;99.90;;;;;;5049085;28;20472;-61
2022/07/11 04:59:13;;;;;;;10.03;5.37;;;15.00;99.90;;;;;;5049593;28;20440;-61
2022/07/11 05:01:41;;;;;;;9.10;5.33;;;15.00;99.90;;;;;;5030346;28;20461;-61
2022/07/11 05:04:09;;;;;;;5.83;5.33;;;15.00;99.90;;;;;;5029666;28;20452;-62
2022/07/11 05:06:36;;;;;;;4.97;4.30;;;15.00;99.90;;;;;;5030191;28;20811;-61
2022/07/11 05:09:07;;;;;;;6.00;5.07;;;15.00;99.90;;;;;;5029540;28;20520;-61
2022/07/11 05:11:35;;;;;;;7.70;5.23;;;14.90;99.90;;;;;;5029314;28;20905;-61
2022/07/11 05:14:02;;;;;;;8.17;3.93;;;14.90;99.90;;;;;;5030912;28;20937;-62
2022/07/11 05:16:30;;;;;;;8.13;4.40;;;14.90;99.90;;;;;;5048258;28;20468;-61
2022/07/11 05:18:58;;;;;;;5.13;3.87;;;15.00;99.90;;;;;;5048875;28;20449;-61
2022/07/11 05:21:26;;;;;;;4.37;3.37;;;15.00;99.90;;;;;;5035098;28;20445;-61
2022/07/11 05:23:53;;;;;;;5.10;3.40;;;15.10;99.90;;;;;;5035581;28;21002;-62
2022/07/11 05:26:20;;;;;;;4.30;3.40;;;15.20;99.90;;;;;;5034947;28;20449;-62
2022/07/11 05:28:47;;;;;;;9.73;3.90;;;15.30;99.90;;;;;;5035611;28;20469;-61
2022/07/11 05:31:14;;;;;;;3.57;2.93;;;15.50;99.90;;;;;;5035578;28;20498;-62
2022/07/11 05:33:42;;;;;;;4.60;3.93;;;15.60;99.90;;;;;;5035191;28;20445;-62
2022/07/11 05:36:10;;;;;;;4.10;3.70;;;15.80;99.90;;;;;;5034423;28;20560;-63
2022/07/11 05:38:38;;;;;;;5.87;3.70;;;15.90;99.90;;;;;;5033037;28;20491;-62
2022/07/11 05:41:05;;;;;;;5.23;3.50;;;16.00;99.90;;;;;;5035258;28;20445;-61
2022/07/11 05:43:32;;;;;;;5.10;4.20;;;16.20;99.90;;;;;;5035113;28;20453;-62
2022/07/11 05:46:00;;;;;;;5.27;3.90;;;16.20;99.90;;;;;;5034941;28;20441;-62
2022/07/11 05:48:27;;;;;;;4.20;3.60;;;16.20;99.90;;;;;;5034507;28;21034;-62
2022/07/11 05:50:54;;;;;;;3.70;3.40;;;16.20;99.90;;;;;;5035311;28;20449;-62
2022/07/11 05:53:23;;;;;;;4.63;4.07;;;16.20;99.90;;;;;;5035085;28;20503;-62
2022/07/11 05:55:50;;;;;;;4.37;3.47;;;16.30;99.90;;;;;;5034416;28;20536;-62
2022/07/11 05:58:17;;;;;;;4.90;2.83;;;16.40;99.90;;;;;;5034745;28;20500;-62
2022/07/11 06:00:45;;;;;;;3.90;3.10;;;16.50;99.90;;;;;;5034173;28;20449;-62
2022/07/11 06:03:12;;;;;;;4.97;2.63;;;16.60;99.90;;;;;;5034512;28;20437;-62
2022/07/11 06:05:39;;;;;;;7.40;3.50;;;16.70;99.90;;;;;;5034537;28;20445;-62
2022/07/11 06:10:52;;;;;;;4.90;2.90;;;16.80;99.90;;;;;;5034479;28;20801;-61
2022/07/11 06:13:20;;;;;;;4.03;2.57;;;16.90;99.90;;;;;;5034488;28;20968;-61
2022/07/11 06:15:48;;;;;;;2.80;2.00;;;17.20;99.90;;;;;;5034210;28;20452;-60
2022/07/11 06:18:15;;;;;;;3.10;2.20;;;17.60;99.90;;;;;;5034605;28;20469;-60
2022/07/11 06:20:42;;;;;;;3.63;2.33;;;17.90;99.90;;;;;;5034516;28;20522;-60
2022/07/11 06:23:09;;;;;;;3.10;1.70;;;18.20;99.90;;;;;;5034308;28;20488;-60
2022/07/11 06:25:37;;;;;;;2.43;1.80;;;18.30;99.90;;;;;;5034442;28;20499;-61
2022/07/11 06:28:06;;;;;;;2.10;1.70;;;18.30;99.90;;;;;;5033904;28;20503;-60
2022/07/11 06:30:36;;;;;;;1.57;1.40;;;18.10;99.20;;;;;;5034125;28;20488;-60
2022/07/11 06:33:04;;;;;;;3.33;1.50;;;18.00;99.10;;;;;;5032900;28;20449;-61
2022/07/11 06:35:31;;;;;;;3.50;1.70;;;18.00;98.50;;;;;;5033882;28;20544;-61
2022/07/11 06:37:58;;;;;;;5.00;2.03;;;17.90;98.10;;;;;;5033922;28;20473;-62
2022/07/11 06:40:26;;;;;;;3.53;2.00;;;17.80;98.00;;;;;;5033936;28;20445;-61
2022/07/11 06:42:54;;;;;;;5.90;1.80;;;17.70;97.80;;;;;;5033754;28;20453;-61
2022/07/11 06:45:23;;;;;;;2.93;1.77;;;17.70;97.80;;;;;;5033765;28;20934;-61
2022/07/11 06:47:50;;;;;;;2.77;1.20;;;17.70;98.00;;;;;;5033899;28;20468;-61
2022/07/11 06:50:18;;;;;;;3.27;1.83;;;17.80;97.90;;;;;;5033536;28;21065;-61
2022/07/11 06:52:46;;;;;;;4.67;1.60;;;17.90;97.60;;;;;;5033851;28;20495;-61
2022/07/11 06:55:13;;;;;;;2.80;1.50;;;18.00;97.10;;;;;;5032983;28;20536;-62
2022/07/11 06:57:40;;;;;;;1.57;1.40;;;18.00;96.40;;;;;;5033418;28;20469;-61
2022/07/11 07:00:09;;;;;;;3.10;2.33;;;17.90;95.80;;;;;;5033115;28;20441;-61
2022/07/11 07:02:38;;;;;;;2.30;1.50;;;17.80;95.90;;;;;;5033853;28;20534;-61
2022/07/11 07:05:06;;;;;;;3.53;2.03;;;17.70;95.70;;;;;;5033460;28;20457;-60
2022/07/11 07:07:33;;;;;;;2.90;1.60;;;17.70;95.70;;;;;;5033727;28;20465;-61
2022/07/11 07:10:01;;;;;;;3.47;1.60;;;17.80;95.50;;;;;;5033477;28;21043;-65
2022/07/11 07:12:28;;;;;;;7.40;1.50;;;17.80;95.40;;;;;;5033311;28;20472;-61
2022/07/11 07:14:55;;;;;;;3.07;1.70;;;17.80;95.40;;;;;;5033387;28;20445;-61
2022/07/11 07:17:22;;;;;;;2.37;1.87;;;17.70;95.40;;;;;;5033007;28;20504;-61
2022/07/11 07:19:51;;;;;;;1.90;1.70;;;17.60;95.50;;;;;;5033235;28;20536;-61
2022/07/11 07:22:18;;;;;;;2.53;2.10;;;17.60;95.70;;;;;;5033502;28;20449;-61
2022/07/11 07:24:46;;;;;;;3.00;1.80;;;17.60;95.70;;;;;;5033440;28;20878;-61
2022/07/11 07:27:14;;;;;;;2.70;1.53;;;17.70;95.90;;;;;;5032924;28;20550;-61
2022/07/11 07:29:41;;;;;;;1.63;1.53;;;17.90;95.10;;;;;;5033389;28;20485;-61
2022/07/11 07:32:09;;;;;;;2.37;1.70;;;18.10;94.50;;;;;;5033509;28;20449;-62
2022/07/11 07:34:36;;;;;;;3.57;1.77;;;18.20;93.90;;;;;;5033151;28;20484;-63
2022/07/11 07:37:05;;;;;;;3.00;1.70;;;18.30;93.40;;;;;;5033388;28;20469;-62
2022/07/11 07:39:32;;;;;;;2.60;1.60;;;18.30;93.10;;;;;;5032928;28;20888;-61
2022/07/11 07:41:59;;;;;;;1.60;1.30;;;18.30;93.00;;;;;;5033063;28;20503;-62
2022/07/11 07:44:26;;;;;;;3.13;1.20;;;18.30;92.70;;;;;;5032566;28;20453;-61
2022/07/11 07:46:54;;;;;;;1.50;1.23;;;18.40;92.40;;;;;;5032750;28;20556;-62
2022/07/11 07:49:21;;;;;;;4.77;1.17;;;18.30;91.50;;;;;;5032772;28;20476;-62
2022/07/11 07:51:48;;;;;;;1.20;0.97;;;18.20;91.00;;;;;;5033024;28;20449;-62
2022/07/11 07:54:18;;;;;;;2.40;1.47;;;18.10;90.40;;;;;;5032960;28;20527;-60
2022/07/11 07:56:45;;;;;;;1.50;1.00;;;18.00;90.10;;;;;;5032562;28;20469;-61
2022/07/11 07:59:12;;;;;;;3.67;1.40;;;18.00;90.10;;;;;;5033216;28;20449;-62
2022/07/11 08:01:41;;;;;;;1.23;1.07;;;17.90;90.20;;;;;;5032734;28;20532;-61
2022/07/11 08:04:10;;;;;;;2.20;1.40;;;17.90;90.50;;;;;;5032838;28;20445;-61
2022/07/11 08:06:38;;;;;;;3.40;1.27;;;18.00;90.90;;;;;;5032799;28;20476;-61
2022/07/11 08:09:06;;;;;;;1.70;1.30;;;18.00;91.10;;;;;;5032264;28;20477;-61
2022/07/11 08:11:35;;;;;;;4.40;1.70;;;18.10;91.20;;;;;;5032610;28;20816;-61
2022/07/11 08:14:07;;;;;;;2.40;1.47;;;18.20;91.50;;;;;;5032652;28;20595;-61
2022/07/11 08:16:35;;;;;;;1.60;1.20;;;18.20;91.80;;;;;;5032370;28;20465;-61
2022/07/11 08:19:04;;;;;;;1.40;1.17;;;18.20;92.40;;;;;;5032584;28;20445;-61
2022/07/11 08:21:32;;;;;;;2.30;1.33;;;18.20;92.50;;;;;;5032377;28;20444;-63
2022/07/11 08:24:00;;;;;;;3.10;1.20;;;18.20;92.70;;;;;;5032448;28;20444;-60
2022/07/11 08:26:27;;;;;;;1.43;1.33;;;18.10;92.90;;;;;;5032127;28;20445;-59
2022/07/11 08:28:56;;;;;;;2.33;1.10;;;18.00;93.10;;;;;;5032365;28;20434;-60
2022/07/11 08:31:24;;;;;;;1.80;1.20;;;18.00;93.40;;;;;;5032381;28;20860;-61
2022/07/11 08:33:52;;;;;;;1.73;1.20;;;18.00;93.40;;;;;;5032671;28;20452;-61
2022/07/11 08:36:19;;;;;;;3.27;1.67;;;17.90;93.60;;;;;;5032134;28;20448;-61
2022/07/11 08:38:47;;;;;;;3.60;1.30;;;17.80;94.10;;;;;;5032245;28;20449;-61
2022/07/11 08:41:16;;;;;;;2.20;1.40;;;17.60;94.90;;;;;;5032185;28;20760;-61
2022/07/11 08:43:44;;;;;;;2.97;1.00;;;17.60;95.60;;;;;;5032495;28;20937;-61
2022/07/11 08:46:14;;;;;;;2.47;1.30;;;17.70;95.80;;;;;;5032140;28;20445;-62
2022/07/11 08:48:43;;;;;;;1.30;1.20;;;17.80;95.60;;;;;;5032083;28;20524;-61
2022/07/11 08:51:11;;;;;;;1.47;0.97;;;17.90;95.00;;;;;;5032336;28;20476;-61
2022/07/11 08:53:44;;;;;;;3.60;1.23;;;18.00;94.40;;;;;;5032372;28;20453;-61
2022/07/11 08:56:15;;;;;;;1.87;1.17;;;18.10;94.20;;;;;;5035083;28;20979;-63
2022/07/11 08:58:46;;;;;;;2.20;1.27;;;18.30;93.80;;;;;;5035988;28;20464;-61
2022/07/11 09:01:17;;;;;;;2.00;1.17;;;18.50;93.00;;;;;;5035688;28;20453;-61
2022/07/11 09:03:45;;;;;;;1.37;0.93;;;18.70;92.60;;;;;;5035655;28;20425;-62
2022/07/11 09:06:13;;;;;;;2.80;0.97;;;18.90;92.10;;;;;;5036055;28;20547;-62
2022/07/11 09:08:40;;;;;;;0.80;0.70;;;19.20;91.40;;;;;;5035557;28;20441;-62
2022/07/11 09:11:08;;;;;;;2.03;1.37;;;19.40;90.60;;;;;;5035410;28;20851;-61
2022/07/11 09:13:36;;;;;;;1.27;0.80;;;19.70;90.00;;;;;;5035510;28;21000;-62
2022/07/11 09:16:05;;;;;;;1.50;0.90;;;19.90;88.30;;;;;;5035461;28;20444;-61
2022/07/11 09:18:35;;;;;;;1.50;1.03;;;20.00;86.90;;;;;;5036041;28;20462;-61
2022/07/11 09:26:36;;;;;;;1.13;0.80;;;19.90;85.70;;;;;;5035614;28;20469;-61
2022/07/11 09:29:08;;;;;;;1.93;0.80;;;19.90;85.60;;;;;;5035437;28;20425;-61
2022/07/11 09:31:37;;;;;;;1.57;0.70;;;20.00;85.50;;;;;;5035280;28;20421;-63
2022/07/11 09:34:08;;;;;;;1.70;0.97;;;20.20;84.80;;;;;;5035789;28;20532;-62
2022/07/11 09:36:37;;;;;;;1.33;0.83;;;20.30;83.30;;;;;;5035470;28;20552;-61
2022/07/11 09:39:05;;;;;;;1.53;0.83;;;20.40;82.80;;;;;;5035082;28;20441;-62
2022/07/11 09:41:34;;;;;;;2.17;0.70;;;20.50;82.20;;;;;;5035416;28;20533;-61
2022/07/11 09:44:09;;;;;;;1.30;0.90;;;20.70;80.90;;;;;;5035120;28;20458;-62
2022/07/11 09:46:36;;;;;;;2.97;0.83;;;20.80;80.20;;;;;;5034917;28;20466;-61
2022/07/11 09:49:06;;;;;;;3.90;0.90;;;20.90;79.20;;;;;;5035137;28;20443;-61
2022/07/11 09:51:35;;;;;;;1.17;0.93;;;20.90;78.40;;;;;;5034976;28;20474;-62
2022/07/11 09:54:05;;;;;;;1.10;0.80;;;20.90;77.90;;;;;;5035438;28;20534;-62
2022/07/11 09:56:39;;;;;;;1.43;0.90;;;20.90;78.00;;;;;;5034832;28;20471;-61
2022/07/11 09:59:07;;;;;;;1.77;0.70;;;20.90;77.90;;;;;;5035252;28;20439;-61
2022/07/11 10:01:34;;;;;;;1.10;0.70;;;21.00;77.40;;;;;;5036108;28;20443;-61
2022/07/11 10:04:02;;;;;;;1.10;0.60;;;21.00;76.90;;;;;;5035091;28;20482;-61
2022/07/11 10:06:30;;;;;;;2.40;0.80;;;21.10;76.00;;;;;;5034768;28;20468;-61
2022/07/11 10:08:57;;;;;;;2.40;1.00;;;21.10;75.60;;;;;;5034774;28;20512;-61
2022/07/11 10:11:25;;;;;;;4.20;0.83;;;21.00;75.90;;;;;;5034360;28;20563;-61
2022/07/11 10:13:52;;;;;;;1.20;0.50;;;20.90;75.60;;;;;;5034405;28;20541;-61
2022/07/11 10:16:44;;;;;;;1.30;0.93;;;20.80;76.30;;;;;;5034524;28;20458;-61
2022/07/11 10:19:25;;;;;;;4.53;0.90;;;20.90;76.30;;;;;;5035074;28;20483;-61
2022/07/11 10:22:03;;;;;;;1.30;0.77;;;21.20;75.10;;;;;;5034780;28;20519;-61
2022/07/11 10:24:41;;;;;;;1.17;0.80;;;21.30;73.80;;;;;;5034640;28;20534;-62
2022/07/11 10:29:51;;;;;;;1.00;0.70;;;21.40;73.00;;;;;;5072502;28;20465;-61
2022/07/11 10:32:19;;;;;;;1.00;0.70;;;21.60;71.90;;;;;;5074512;28;20422;-61
2022/07/11 10:34:47;;;;;;;1.90;1.10;;;21.60;70.80;;;;;;5074162;28;20819;-60
2022/07/11 10:37:16;;;;;;;1.33;1.10;;;21.60;70.80;;;;;;5073948;28;20472;-62
2022/07/11 10:39:59;;;;;;;1.83;1.20;;;21.60;71.20;;;;;;5073966;28;20567;-61
2022/07/11 10:42:40;;;;;;;1.80;1.07;;;21.50;71.60;;;;;;5073407;28;20740;-62
2022/07/11 10:45:10;;;;;;;1.87;1.30;;;21.50;72.00;;;;;;5074285;28;20426;-62
2022/07/11 10:47:42;;;;;;;1.20;0.90;;;21.50;72.60;;;;;;5073585;28;20462;-61
2022/07/11 10:50:22;;;;;;;1.23;1.03;;;21.40;72.30;;;;;;5073860;28;20565;-60
2022/07/11 10:52:55;;;;;;;1.50;1.30;;;21.40;72.90;;;;;;5074380;28;20803;-61
2022/07/11 10:55:34;;;;;;;7.50;1.20;;;21.50;73.10;;;;;;5074864;28;20469;-60
2022/07/11 10:58:09;;;;;;;1.30;1.20;;;21.70;72.50;;;;;;5076077;28;20514;-61
2022/07/11 11:00:36;;;;;;;1.60;1.17;;;21.80;71.50;;;;;;5075723;28;20454;-61
2022/07/11 11:03:05;;;;;;;3.73;1.10;;;22.00;71.00;;;;;;5075110;28;20999;-61
2022/07/11 11:05:47;;;;;;;1.63;1.20;;;21.90;70.40;;;;;;5077566;28;20847;-60
2022/07/11 11:08:47;;;;;;;1.10;0.93;;;21.60;70.10;;;;;;5074935;28;20561;-60
2022/07/11 11:11:40;;;;;;;1.20;0.97;;;21.30;71.70;;;;;;5074467;28;21077;-60
2022/07/11 11:14:27;;;;;;;1.37;0.90;;;21.10;73.20;;;;;;5074825;28;20437;-61
2022/07/11 11:16:55;;;;;;;1.63;1.07;;;21.00;74.30;;;;;;5074813;28;20808;-63
2022/07/11 11:19:54;;;;;;;2.07;0.80;;;20.90;75.10;;;;;;5074258;28;20464;-60
2022/07/11 11:22:23;;;;;;;1.80;1.23;;;20.80;75.60;;;;;;5075134;28;20451;-61
2022/07/11 11:24:54;;;;;;;1.00;0.67;;;20.60;76.30;;;;;;5074279;28;20444;-61
2022/07/11 11:27:23;;;;;;;1.83;0.70;;;20.60;77.20;;;;;;5073271;28;20429;-62
2022/07/11 11:29:52;;;;;;;1.00;0.77;;;20.50;78.20;;;;;;5073067;28;20452;-60
2022/07/11 11:32:20;;;;;;;1.10;0.90;;;20.50;78.80;;;;;;5072970;28;20510;-61
2022/07/11 11:34:48;;;;;;;3.43;0.90;;;20.50;79.50;;;;;;5073399;28;20449;-61
2022/07/11 11:37:17;;;;;;;4.20;1.07;;;20.50;80.10;;;;;;5073942;28;20482;-61
2022/07/11 11:39:45;;;;;;;1.27;1.00;;;20.70;80.10;;;;;;5074031;28;20445;-61
2022/07/11 11:42:16;;;;;;;1.10;0.93;;;21.00;79.00;;;;;;5073590;28;20448;-61
2022/07/11 11:44:58;;;;;;;1.00;0.70;;;21.20;77.40;;;;;;5074803;28;20426;-60
2022/07/11 11:47:26;;;;;;;1.20;0.80;;;21.10;77.00;;;;;;5074947;28;20421;-61
2022/07/11 11:49:54;;;;;;;1.10;0.63;;;21.20;77.40;;;;;;5073651;28;20498;-61
2022/07/11 11:52:21;;;;;;;1.53;0.90;;;21.20;77.00;;;;;;5072627;28;20442;-61
2022/07/11 11:54:53;;;;;;;1.20;0.70;;;21.20;76.80;;;;;;5073685;28;20837;-61
2022/07/11 11:57:24;;;;;;;2.03;0.80;;;21.10;77.00;;;;;;5073635;28;20530;-61
2022/07/11 11:59:52;;;;;;;2.10;0.77;;;21.10;77.20;;;;;;5072792;28;20938;-62
2022/07/11 12:02:26;;;;;;;1.00;0.77;;;21.20;76.90;;;;;;5072892;28;20447;-61
2022/07/11 12:04:54;;;;;;;0.87;0.80;;;21.30;76.80;;;;;;5072733;28;20454;-61
2022/07/11 12:07:26;;;;;;;0.80;0.63;;;21.40;76.60;;;;;;5072759;28;20476;-62
2022/07/11 12:09:56;;;;;;;2.03;0.80;;;21.60;76.10;;;;;;5072517;28;20499;-61
2022/07/11 12:12:45;;;;;;;0.70;0.60;;;21.60;75.30;;;;;;5072799;28;20477;-61
2022/07/11 12:15:27;;;;;;;1.33;0.80;;;21.50;74.90;;;;;;5072706;28;20434;-61
2022/07/11 12:17:59;;;;;;;1.27;0.90;;;21.30;76.10;;;;;;5072444;28;20459;-61
2022/07/11 12:20:37;;;;;;;1.57;0.80;;;21.20;77.20;;;;;;5072935;28;20430;-61
2022/07/11 12:23:07;;;;;;;1.60;1.50;;;21.00;77.30;;;;;;5072475;28;20505;-61
2022/07/11 12:25:35;;;;;;;2.53;1.50;;;20.60;81.00;;;;;;5072448;28;20940;-60
2022/07/11 12:28:04;;;;;;;2.10;1.90;;;19.90;88.90;;;;;;5073768;28;20479;-61
2022/07/11 12:30:32;;;;;;;3.00;2.30;;;19.20;93.80;;;;;;5078995;28;21024;-61
2022/07/11 12:33:06;;;;;;;2.20;1.90;;;18.70;96.90;;;;;;5080789;28;20447;-61
2022/07/11 12:35:34;;;;;;;2.50;2.00;;;18.40;99.00;;;;;;5079719;28;20444;-61
2022/07/11 12:38:01;;;;;;;1.40;1.30;;;18.30;99.90;;;;;;5079856;28;20490;-61
2022/07/11 12:40:29;;;;;;;1.43;1.33;;;18.50;99.90;;;;;;5079381;28;20439;-61
2022/07/11 12:42:56;;;;;;;1.70;1.30;;;18.70;99.60;;;;;;5077349;28;20512;-61
2022/07/11 12:45:24;;;;;;;1.87;1.60;;;18.90;99.10;;;;;;5077106;28;20449;-61
2022/07/11 12:47:53;;;;;;;1.87;1.40;;;19.20;98.60;;;;;;5076976;28;20470;-61
2022/07/11 12:50:23;;;;;;;1.40;1.30;;;19.40;98.20;;;;;;5076376;28;20443;-61
2022/07/11 12:52:52;;;;;;;1.43;1.00;;;19.70;97.50;;;;;;5076735;28;20473;-60
2022/07/11 12:55:25;;;;;;;1.67;1.37;;;20.10;96.70;;;;;;5076460;28;20492;-62
2022/07/11 12:58:05;;;;;;;1.50;1.33;;;20.50;96.10;;;;;;5076885;28;20485;-61
2022/07/11 13:00:36;;;;;;;1.07;0.73;;;21.00;94.70;;;;;;5076634;28;20428;-61
2022/07/11 13:03:04;;;;;;;1.20;1.10;;;21.30;93.30;;;;;;5075908;28;20429;-61
2022/07/11 13:05:47;;;;;;;3.97;1.50;;;21.30;92.60;;;;;;5076008;28;20448;-61
2022/07/11 13:11:08;;;;;;;5.23;3.10;;;20.50;93.10;;;;;;5075984;28;20570;-63
2022/07/11 13:13:35;;;;;;;3.00;2.73;;;19.60;97.20;;;;;;5075846;28;20992;-61
2022/07/11 13:16:04;;;;;;;2.40;2.10;;;18.80;99.90;;;;;;5075273;28;20500;-61